createdAt,value
2019-04-11T00:42:45.084Z,4.00
2019-04-11T00:43:45.387Z,4.00
2019-04-11T00:44:45.154Z,4.00
2019-04-11T00:45:44.130Z,8.00
2019-04-11T00:46:44.621Z,4.00
2019-04-11T00:47:44.981Z,4.00
2019-04-11T00:48:44.045Z,8.00
2019-04-11T00:49:43.981Z,8.00
2019-04-11T00:50:43.976Z,8.00
2019-04-11T00:51:44.388Z,8.00
2019-04-11T00:52:43.950Z,12.00
2019-04-11T00:53:44.511Z,16.00
2019-04-11T00:54:43.927Z,12.00
2019-04-11T00:55:43.962Z,20.00
2019-04-11T00:56:44.226Z,20.00
2019-04-11T00:57:43.999Z,20.00
2019-04-11T00:58:43.887Z,24.00
2019-04-11T00:59:44.695Z,28.00
2019-04-11T01:00:44.969Z,28.00
2019-04-11T01:01:44.949Z,28.00
2019-04-11T01:02:43.842Z,32.00
2019-04-11T01:03:43.887Z,36.00
2019-04-11T01:04:43.824Z,44.00
2019-04-11T01:05:43.808Z,48.00
2019-04-11T01:06:44.607Z,56.00
2019-04-11T01:07:43.929Z,60.00
2019-04-11T01:08:44.064Z,68.00
2019-04-11T01:09:44.310Z,72.00
2019-04-11T01:10:43.758Z,80.00
2019-04-11T01:11:43.746Z,88.00
2019-04-11T01:12:44.683Z,92.00
2019-04-11T01:13:50.357Z,104.00
2019-04-11T01:15:08.582Z,116.00
2019-04-11T01:16:09.113Z,124.00
2019-04-11T01:17:09.427Z,136.00
2019-04-11T01:18:08.497Z,148.00
2019-04-11T01:19:08.750Z,156.00
2019-04-11T01:20:08.474Z,164.00
2019-04-11T01:21:08.563Z,168.00
2019-04-11T01:22:08.450Z,176.00
2019-04-11T01:23:08.949Z,180.00
2019-04-11T01:24:09.295Z,192.00
2019-04-11T01:25:08.508Z,204.00
2019-04-11T01:26:08.730Z,220.00
2019-04-11T01:27:09.727Z,236.00
2019-04-11T01:28:08.385Z,248.00
2019-04-11T01:29:09.249Z,256.00
2019-04-11T01:30:08.367Z,264.00
2019-04-11T01:31:09.396Z,268.00
2019-04-11T01:32:08.382Z,280.00
2019-04-11T01:33:08.386Z,292.00
2019-04-11T01:34:08.584Z,316.00
2019-04-11T01:35:08.926Z,348.00
2019-04-11T01:36:08.915Z,380.00
2019-04-11T01:37:09.174Z,424.00
2019-04-11T01:38:08.336Z,456.00
2019-04-11T01:39:08.516Z,476.00
2019-04-11T01:40:08.257Z,492.00
2019-04-11T01:41:08.248Z,500.00
2019-04-11T01:42:09.104Z,504.00
2019-04-11T01:43:08.226Z,508.00
2019-04-11T01:44:08.920Z,500.00
2019-04-11T01:45:09.411Z,488.00
2019-04-11T01:46:08.200Z,480.00
2019-04-11T01:47:08.721Z,480.00
2019-04-11T01:48:09.095Z,464.00
2019-04-11T01:49:08.202Z,456.00
2019-04-11T01:50:08.505Z,432.00
2019-04-11T01:51:08.192Z,408.00
2019-04-11T01:52:08.128Z,392.00
2019-04-11T01:53:08.934Z,380.00
2019-04-11T01:54:08.110Z,376.00
2019-04-11T01:55:08.303Z,384.00
2019-04-11T01:56:09.274Z,396.00
2019-04-11T01:57:08.123Z,436.00
2019-04-11T01:58:08.667Z,488.00
2019-04-11T01:59:08.053Z,556.00
2019-04-11T02:00:09.394Z,632.00
2019-04-11T02:01:08.379Z,708.00
2019-04-11T02:02:08.027Z,780.00
2019-04-11T02:03:08.829Z,840.00
2019-04-11T02:04:08.006Z,876.00
2019-04-11T02:05:08.381Z,888.00
2019-04-11T02:06:07.979Z,876.00
2019-04-11T02:07:07.971Z,860.00
2019-04-11T02:08:09.182Z,840.00
2019-04-11T02:09:08.150Z,832.00
2019-04-11T02:10:08.552Z,828.00
2019-04-11T02:11:08.193Z,816.00
2019-04-11T02:12:07.913Z,792.00
2019-04-11T02:13:07.929Z,788.00
2019-04-11T02:14:14.112Z,824.00
2019-04-11T02:15:32.742Z,892.00
2019-04-11T02:16:32.830Z,916.00
2019-04-11T02:17:32.922Z,920.00
2019-04-11T02:18:32.711Z,912.00
2019-04-11T02:19:32.699Z,912.00
2019-04-11T02:20:33.369Z,920.00
2019-04-11T02:21:33.665Z,936.00
2019-04-11T02:22:32.809Z,960.00
2019-04-11T02:23:32.657Z,988.00
2019-04-11T02:24:32.645Z,1008.00
2019-04-11T02:25:32.634Z,1020.00
2019-04-11T02:26:33.581Z,1032.00
2019-04-11T02:27:32.744Z,1032.00
2019-04-11T02:28:32.885Z,1036.00
2019-04-11T02:29:33.293Z,1048.00
2019-04-11T02:30:33.929Z,1072.00
2019-04-11T02:31:32.771Z,1092.00
2019-04-11T02:32:34.421Z,1100.00
2019-04-11T02:33:32.972Z,1092.00
2019-04-11T02:34:32.538Z,1100.00
2019-04-11T02:35:32.645Z,1116.00
2019-04-11T02:36:34.171Z,1144.00
2019-04-11T02:37:34.330Z,1176.00
2019-04-11T02:38:33.306Z,1200.00
2019-04-11T02:39:33.753Z,1248.00
2019-04-11T02:40:32.875Z,1292.00
2019-04-11T02:41:35.068Z,1344.00
2019-04-11T02:42:32.976Z,1400.00
2019-04-11T02:43:34.103Z,1448.00
2019-04-11T02:44:51.055Z,1508.00
2019-04-11T02:46:09.802Z,1708.00
2019-04-11T02:47:25.336Z,2004.00
2019-04-11T02:48:46.908Z,2164.00
2019-04-11T02:49:47.724Z,2192.00
2019-04-11T02:50:47.852Z,2252.00
2019-04-11T02:51:47.333Z,2336.00
2019-04-11T02:52:47.388Z,2340.00
2019-04-11T02:53:47.285Z,2264.00
2019-04-11T02:54:47.359Z,2188.00
2019-04-11T02:55:46.931Z,2160.00
2019-04-11T02:56:48.797Z,2180.00
2019-04-11T02:57:48.251Z,2248.00
2019-04-11T02:58:48.155Z,2320.00
2019-04-11T02:59:48.902Z,2412.00
2019-04-11T03:00:46.949Z,2344.00
2019-04-11T03:01:48.444Z,2252.00
2019-04-11T03:02:47.910Z,2180.00
2019-04-11T03:03:47.467Z,2104.00
2019-04-11T03:04:48.132Z,2076.00
2019-04-11T03:05:47.063Z,2072.00
2019-04-11T03:06:47.917Z,2028.00
2019-04-11T03:07:47.699Z,1980.00
2019-04-11T03:08:46.626Z,1912.00
2019-04-11T03:09:48.707Z,1844.00
2019-04-11T03:10:46.672Z,1760.00
2019-04-11T03:11:47.225Z,1684.00
2019-04-11T03:12:48.477Z,1604.00
2019-04-11T03:13:48.278Z,1528.00
2019-04-11T03:15:05.440Z,1472.00
2019-04-11T03:16:29.766Z,1388.00
2019-04-11T03:17:40.124Z,1352.00
2019-04-11T03:19:17.890Z,1432.00
2019-04-11T03:20:32.575Z,1612.00
2019-04-11T03:21:29.168Z,1744.00
2019-04-11T03:22:26.924Z,1864.00
2019-04-11T03:23:27.838Z,1972.00
2019-04-11T03:24:26.979Z,2076.00
2019-04-11T03:25:25.873Z,2144.00
2019-04-11T03:26:27.056Z,2224.00
2019-04-11T03:27:28.093Z,2336.00
2019-04-11T03:28:30.247Z,2488.00
2019-04-11T03:29:26.741Z,2668.00
2019-04-11T03:30:42.373Z,2924.00
2019-04-11T03:32:32.113Z,3380.00
2019-04-11T03:34:01.298Z,3548.00
2019-04-11T03:37:43.101Z,3436.00
2019-04-11T03:38:33.111Z,3304.00
2019-04-11T03:39:50.739Z,3156.00
2019-04-11T03:41:11.568Z,3248.00
2019-04-11T03:42:36.586Z,3400.00
2019-04-11T03:43:54.076Z,3360.00
2019-04-11T03:45:32.568Z,3188.00
2019-04-11T03:46:28.356Z,3052.00
2019-04-11T03:47:44.850Z,2860.00
2019-04-11T03:49:06.360Z,2668.00
2019-04-11T03:50:25.963Z,2440.00
2019-04-11T03:51:48.310Z,2264.00
2019-04-11T03:52:49.579Z,2164.00
2019-04-11T03:53:49.054Z,2092.00
2019-04-11T03:54:49.554Z,2052.00
2019-04-11T03:55:49.417Z,2036.00
2019-04-11T03:56:49.168Z,2028.00
2019-04-11T03:57:49.175Z,2032.00
2019-04-11T03:58:50.248Z,2012.00
2019-04-11T03:59:48.470Z,1996.00
2019-04-11T04:00:50.569Z,1968.00
2019-04-11T04:01:48.759Z,1936.00
2019-04-11T04:02:48.956Z,1916.00
2019-04-11T04:03:49.027Z,1920.00
2019-04-11T04:04:49.334Z,1952.00
2019-04-11T04:05:48.655Z,2000.00
2019-04-11T04:06:49.771Z,2060.00
2019-04-11T04:07:48.871Z,2096.00
2019-04-11T04:08:48.762Z,2104.00
2019-04-11T04:09:49.026Z,2088.00
2019-04-11T04:10:48.106Z,2056.00
2019-04-11T04:11:49.329Z,2020.00
2019-04-11T04:12:48.196Z,2004.00
2019-04-11T04:13:49.716Z,2020.00
2019-04-11T04:14:49.532Z,2064.00
2019-04-11T04:16:00.276Z,2132.00
2019-04-11T04:17:12.843Z,2296.00
2019-04-11T04:18:14.274Z,2448.00
2019-04-11T04:19:15.715Z,2612.00
2019-04-11T04:20:13.031Z,2764.00
2019-04-11T04:21:13.402Z,2892.00
2019-04-11T04:22:13.540Z,2932.00
2019-04-11T04:23:14.126Z,2936.00
2019-04-11T04:24:12.794Z,2908.00
2019-04-11T04:25:14.183Z,2864.00
2019-04-11T04:26:14.609Z,2836.00
2019-04-11T04:27:13.237Z,2848.00
2019-04-11T04:28:14.260Z,2876.00
2019-04-11T04:29:12.725Z,2924.00
2019-04-11T04:30:13.708Z,2980.00
2019-04-11T04:31:14.015Z,3004.00
2019-04-11T04:32:14.175Z,2984.00
2019-04-11T04:33:14.461Z,2964.00
2019-04-11T04:34:13.025Z,2980.00
2019-04-11T04:35:16.796Z,3012.00
2019-04-11T04:36:37.873Z,3056.00
2019-04-11T04:37:38.787Z,3040.00
2019-04-11T04:38:38.999Z,3000.00
2019-04-11T04:39:39.008Z,2936.00
2019-04-11T04:40:51.172Z,2860.00
2019-04-11T04:42:10.605Z,2776.00
2019-04-11T04:43:27.941Z,2716.00
2019-04-11T04:44:27.067Z,2676.00
2019-04-11T04:45:27.682Z,2616.00
2019-04-11T04:46:45.323Z,2548.00
2019-04-11T04:47:56.581Z,2496.00
2019-04-11T04:49:18.523Z,2532.00
2019-04-11T04:50:18.177Z,2604.00
2019-04-11T04:51:19.591Z,2684.00
2019-04-11T04:52:16.680Z,2736.00
2019-04-11T04:53:18.026Z,2776.00
2019-04-11T04:54:16.794Z,2804.00
2019-04-11T04:55:17.278Z,2844.00
2019-04-11T04:56:22.049Z,2892.00
2019-04-11T04:57:42.892Z,2948.00
2019-04-11T04:58:42.092Z,2936.00
2019-04-11T04:59:42.531Z,2844.00
2019-04-11T05:00:41.391Z,2748.00
2019-04-11T05:01:42.114Z,2684.00
2019-04-11T05:02:42.108Z,2652.00
2019-04-11T05:03:42.344Z,2596.00
2019-04-11T05:04:41.350Z,2544.00
2019-04-11T05:05:42.453Z,2488.00
2019-04-11T05:06:44.803Z,2440.00
2019-04-11T05:08:06.332Z,2404.00
2019-04-11T05:09:06.569Z,2384.00
2019-04-11T05:10:07.149Z,2356.00
2019-04-11T05:11:07.644Z,2348.00
2019-04-11T05:12:06.161Z,2356.00
2019-04-11T05:13:07.636Z,2380.00
2019-04-11T05:14:07.209Z,2436.00
2019-04-11T05:15:06.068Z,2492.00
2019-04-11T05:16:16.418Z,2568.00
2019-04-11T05:17:32.409Z,2704.00
2019-04-11T05:18:32.027Z,2772.00
2019-04-11T05:19:32.019Z,2808.00
2019-04-11T05:20:30.874Z,2836.00
2019-04-11T05:21:30.868Z,2868.00
2019-04-11T05:22:31.052Z,2912.00
2019-04-11T05:23:31.876Z,2952.00
2019-04-11T05:24:30.833Z,2984.00
2019-04-11T05:25:30.829Z,3028.00
2019-04-11T05:26:31.401Z,3056.00
2019-04-11T05:27:31.440Z,3056.00
2019-04-11T05:28:31.874Z,3020.00
2019-04-11T05:29:30.783Z,2984.00
2019-04-11T05:30:31.534Z,2964.00
2019-04-11T05:31:30.759Z,2924.00
2019-04-11T05:32:31.269Z,2888.00
2019-04-11T05:33:31.479Z,2844.00
2019-04-11T05:34:30.982Z,2804.00
2019-04-11T05:35:32.854Z,2784.00
2019-04-11T05:36:30.710Z,2792.00
2019-04-11T05:37:31.325Z,2824.00
2019-04-11T05:38:30.681Z,2868.00
2019-04-11T05:39:31.659Z,2920.00
2019-04-11T05:40:31.018Z,2992.00
2019-04-11T05:41:31.459Z,3100.00
2019-04-11T05:42:31.325Z,3200.00
2019-04-11T05:43:36.638Z,3300.00
2019-04-11T05:44:55.450Z,3512.00
2019-04-11T05:45:56.727Z,3616.00
2019-04-11T05:46:59.176Z,3636.00
2019-04-11T05:47:56.675Z,3608.00
2019-04-11T05:49:00.447Z,3560.00
2019-04-11T05:49:55.386Z,3468.00
2019-04-11T05:50:56.223Z,3368.00
2019-04-11T05:51:57.997Z,3352.00
2019-04-11T05:52:56.627Z,3396.00
2019-04-11T05:53:55.849Z,3412.00
2019-04-11T05:54:55.375Z,3444.00
2019-04-11T05:55:55.337Z,3468.00
2019-04-11T05:56:57.813Z,3504.00
2019-04-11T05:57:55.397Z,3572.00
2019-04-11T05:58:55.624Z,3676.00
2019-04-11T05:59:56.568Z,3788.00
2019-04-11T06:00:55.962Z,3924.00
2019-04-11T06:01:55.267Z,4068.00
2019-04-11T06:02:55.273Z,4100.00
2019-04-11T06:03:55.739Z,4032.00
2019-04-11T06:04:56.160Z,3948.00
2019-04-11T06:05:59.692Z,3928.00
2019-04-11T06:06:56.885Z,4000.00
2019-04-11T06:07:57.612Z,4080.00
2019-04-11T06:08:59.363Z,4128.00
2019-04-11T06:09:55.228Z,4144.00
2019-04-11T06:10:55.166Z,4176.00
2019-04-11T06:11:57.542Z,4220.00
2019-04-11T06:12:55.143Z,4296.00
2019-04-11T06:13:55.137Z,4424.00
2019-04-11T06:14:55.497Z,4624.00
2019-04-11T06:15:56.650Z,4852.00
2019-04-11T06:16:56.163Z,5052.00
2019-04-11T06:17:55.096Z,5248.00
2019-04-11T06:18:57.169Z,5448.00
2019-04-11T06:19:55.671Z,5592.00
2019-04-11T06:20:55.680Z,5784.00
2019-04-11T06:21:56.075Z,6012.00
2019-04-11T06:22:56.130Z,6240.00
2019-04-11T06:23:55.914Z,6412.00
2019-04-11T06:24:55.016Z,6584.00
2019-04-11T06:25:55.546Z,6792.00
2019-04-11T06:26:54.998Z,7044.00
2019-04-11T06:27:55.807Z,7372.00
2019-04-11T06:28:55.864Z,7724.00
2019-04-11T06:29:54.973Z,7988.00
2019-04-11T06:30:54.954Z,8176.00
2019-04-11T06:31:55.120Z,8228.00
2019-04-11T06:32:56.230Z,8176.00
2019-04-11T06:33:54.976Z,8104.00
2019-04-11T06:34:55.589Z,7960.00
2019-04-11T06:35:54.906Z,7756.00
2019-04-11T06:36:55.264Z,7528.00
2019-04-11T06:37:54.882Z,7300.00
2019-04-11T06:38:54.868Z,7096.00
2019-04-11T06:39:57.826Z,6936.00
2019-04-11T06:40:54.845Z,6804.00
2019-04-11T06:41:54.952Z,6692.00
2019-04-11T06:42:55.939Z,6592.00
2019-04-11T06:43:54.815Z,6540.00
2019-04-11T06:44:54.804Z,6552.00
2019-04-11T06:45:54.854Z,6616.00
2019-04-11T06:46:57.740Z,6780.00
2019-04-11T06:47:54.775Z,7016.00
2019-04-11T06:48:55.904Z,7332.00
2019-04-11T06:49:55.108Z,7676.00
2019-04-11T06:50:55.544Z,7960.00
2019-04-11T06:51:55.103Z,8204.00
2019-04-11T06:52:54.718Z,8420.00
2019-04-11T06:53:54.714Z,8572.00
2019-04-11T06:54:54.696Z,8664.00
2019-04-11T06:55:55.126Z,8784.00
2019-04-11T06:56:54.727Z,8948.00
2019-04-11T06:57:54.672Z,9140.00
2019-04-11T06:58:56.447Z,9312.00
2019-04-11T06:59:54.653Z,9452.00
2019-04-11T07:00:55.704Z,9580.00
2019-04-11T07:01:55.134Z,9712.00
2019-04-11T07:02:55.124Z,9848.00
2019-04-11T07:03:55.290Z,9904.00
2019-04-11T07:04:54.780Z,9992.00
2019-04-11T07:05:55.289Z,10132.00
2019-04-11T07:06:55.772Z,10276.00
2019-04-11T07:07:55.790Z,10376.00
2019-04-11T07:08:54.724Z,10292.00
2019-04-11T07:09:55.527Z,10184.00
2019-04-11T07:10:55.248Z,10040.00
2019-04-11T07:11:54.522Z,9792.00
2019-04-11T07:12:56.945Z,9536.00
2019-04-11T07:13:55.492Z,9424.00
2019-04-11T07:14:55.102Z,9396.00
2019-04-11T07:15:54.858Z,9400.00
2019-04-11T07:17:02.268Z,9276.00
2019-04-11T07:18:20.481Z,9016.00
2019-04-11T07:19:19.849Z,8888.00
2019-04-11T07:20:19.276Z,8820.00
2019-04-11T07:21:19.243Z,8816.00
2019-04-11T07:22:19.232Z,8900.00
2019-04-11T07:23:20.138Z,9052.00
2019-04-11T07:24:20.295Z,9172.00
2019-04-11T07:25:20.276Z,9288.00
2019-04-11T07:26:19.193Z,9432.00
2019-04-11T07:27:20.173Z,9552.00
2019-04-11T07:28:19.168Z,9592.00
2019-04-11T07:29:19.491Z,9624.00
2019-04-11T07:30:19.361Z,9680.00
2019-04-11T07:31:19.401Z,9764.00
2019-04-11T07:32:20.196Z,9848.00
2019-04-11T07:33:20.164Z,10012.00
2019-04-11T07:34:19.481Z,10164.00
2019-04-11T07:35:19.333Z,10312.00
2019-04-11T07:36:20.855Z,10444.00
2019-04-11T07:37:19.261Z,10540.00
2019-04-11T07:38:19.061Z,10576.00
2019-04-11T07:39:20.108Z,10608.00
2019-04-11T07:40:19.036Z,10720.00
2019-04-11T07:41:19.595Z,10720.00
2019-04-11T07:42:19.016Z,10672.00
2019-04-11T07:43:19.518Z,10568.00
2019-04-11T07:44:19.599Z,10380.00
2019-04-11T07:45:18.988Z,10136.00
2019-04-11T07:46:18.973Z,9860.00
2019-04-11T07:47:22.176Z,9588.00
2019-04-11T07:48:19.357Z,9308.00
2019-04-11T07:49:19.916Z,9004.00
2019-04-11T07:50:19.835Z,8716.00
2019-04-11T07:51:19.652Z,8460.00
2019-04-11T07:52:18.913Z,8292.00
2019-04-11T07:53:19.729Z,8216.00
2019-04-11T07:54:20.139Z,8248.00
2019-04-11T07:55:19.031Z,8336.00
2019-04-11T07:56:18.870Z,8500.00
2019-04-11T07:57:19.285Z,8664.00
2019-04-11T07:58:19.419Z,8776.00
2019-04-11T07:59:19.582Z,8772.00
2019-04-11T08:00:19.358Z,8664.00
2019-04-11T08:01:44.719Z,8464.00
2019-04-11T08:02:43.672Z,8344.00
2019-04-11T08:03:44.628Z,8256.00
2019-04-11T08:04:43.648Z,8200.00
2019-04-11T08:05:44.624Z,8188.00
2019-04-11T08:06:43.680Z,8204.00
2019-04-11T08:07:44.816Z,8260.00
2019-04-11T08:08:43.616Z,8356.00
2019-04-11T08:09:43.877Z,8512.00
2019-04-11T08:10:43.767Z,8728.00
2019-04-11T08:11:44.243Z,8996.00
2019-04-11T08:12:43.717Z,9180.00
2019-04-11T08:13:43.563Z,9212.00
2019-04-11T08:14:44.589Z,9156.00
2019-04-11T08:15:43.950Z,9100.00
2019-04-11T08:16:44.633Z,9008.00
2019-04-11T08:17:44.505Z,8968.00
2019-04-11T08:18:43.559Z,8936.00
2019-04-11T08:19:43.823Z,8852.00
2019-04-11T08:20:43.663Z,8716.00
2019-04-11T08:21:44.101Z,8608.00
2019-04-11T08:22:43.461Z,8540.00
2019-04-11T08:23:43.602Z,8484.00
2019-04-11T08:24:44.809Z,8496.00
2019-04-11T08:25:43.427Z,8576.00
2019-04-11T08:26:44.363Z,8724.00
2019-04-11T08:27:53.092Z,8900.00
2019-04-11T08:29:13.385Z,9104.00
2019-04-11T08:30:33.186Z,9208.00
2019-04-11T08:31:33.150Z,9216.00
2019-04-11T08:32:33.788Z,9240.00
2019-04-11T08:33:33.133Z,9292.00
2019-04-11T08:34:33.247Z,9404.00
2019-04-11T08:35:34.766Z,9548.00
2019-04-11T08:36:33.777Z,9740.00
2019-04-11T08:37:33.791Z,9920.00
2019-04-11T08:38:34.158Z,10076.00
2019-04-11T08:39:33.318Z,10176.00
2019-04-11T08:40:33.603Z,10252.00
2019-04-11T08:41:33.874Z,10336.00
2019-04-11T08:42:33.721Z,10312.00
2019-04-11T08:43:33.051Z,10256.00
2019-04-11T08:44:34.130Z,10224.00
2019-04-11T08:45:33.897Z,10152.00
2019-04-11T08:46:33.147Z,10012.00
2019-04-11T08:47:45.981Z,9888.00
2019-04-11T08:48:57.775Z,9888.00
2019-04-11T08:49:58.417Z,9952.00
2019-04-11T08:50:58.701Z,9816.00
2019-04-11T08:51:57.888Z,9588.00
2019-04-11T08:52:57.783Z,9424.00
2019-04-11T08:53:57.720Z,9264.00
2019-04-11T08:54:57.705Z,9112.00
2019-04-11T08:56:00.458Z,8784.00
2019-04-11T08:56:57.689Z,8328.00
2019-04-11T08:57:58.324Z,7912.00
2019-04-11T08:58:57.767Z,7624.00
2019-04-11T08:59:57.721Z,7444.00
2019-04-11T09:01:00.420Z,7316.00
2019-04-11T09:01:57.631Z,7192.00
2019-04-11T09:02:57.618Z,6972.00
2019-04-11T09:04:06.320Z,6660.00
2019-04-11T09:05:22.819Z,6228.00
2019-04-11T09:06:22.938Z,6012.00
2019-04-11T09:07:22.542Z,5892.00
2019-04-11T09:08:24.629Z,5876.00
2019-04-11T09:09:23.120Z,5892.00
2019-04-11T09:10:22.572Z,5856.00
2019-04-11T09:11:22.640Z,5756.00
2019-04-11T09:12:22.605Z,5588.00
2019-04-11T09:13:22.971Z,5384.00
2019-04-11T09:14:22.488Z,5192.00
2019-04-11T09:15:22.464Z,5064.00
2019-04-11T09:16:23.620Z,4964.00
2019-04-11T09:17:23.352Z,4876.00
2019-04-11T09:18:22.419Z,4816.00
2019-04-11T09:19:23.054Z,4788.00
2019-04-11T09:20:23.340Z,4640.00
2019-04-11T09:21:22.401Z,4576.00
2019-04-11T09:22:22.683Z,4620.00
2019-04-11T09:23:22.362Z,4776.00
2019-04-11T09:24:22.351Z,4864.00
2019-04-11T09:25:23.251Z,4800.00
2019-04-11T09:26:23.343Z,4900.00
2019-04-11T09:27:22.654Z,5000.00
2019-04-11T09:28:22.408Z,5072.00
2019-04-11T09:29:22.298Z,5236.00
2019-04-11T09:30:23.045Z,5384.00
2019-04-11T09:31:22.274Z,5680.00
2019-04-11T09:32:22.276Z,5996.00
2019-04-11T09:33:22.698Z,6420.00
2019-04-11T09:34:22.346Z,6844.00
2019-04-11T09:35:22.229Z,7220.00
2019-04-11T09:36:22.219Z,7520.00
2019-04-11T09:37:22.231Z,7796.00
2019-04-11T09:38:22.263Z,8100.00
2019-04-11T09:39:23.241Z,8404.00
2019-04-11T09:40:22.227Z,8624.00
2019-04-11T09:41:22.682Z,8772.00
2019-04-11T09:42:23.003Z,8820.00
2019-04-11T09:43:22.313Z,8828.00
2019-04-11T09:44:22.479Z,8776.00
2019-04-11T09:45:22.272Z,8628.00
2019-04-11T09:46:22.164Z,8464.00
2019-04-11T09:47:22.222Z,8336.00
2019-04-11T09:48:23.317Z,8296.00
2019-04-11T09:49:22.723Z,8160.00
2019-04-11T09:50:22.418Z,8040.00
2019-04-11T09:51:23.368Z,8000.00
2019-04-11T09:52:22.748Z,7916.00
2019-04-11T09:53:22.754Z,7872.00
2019-04-11T09:54:22.030Z,7864.00
2019-04-11T09:55:22.014Z,7760.00
2019-04-11T09:56:22.828Z,7696.00
2019-04-11T09:57:22.813Z,7576.00
2019-04-11T09:58:23.082Z,7512.00
2019-04-11T09:59:23.011Z,7428.00
2019-04-11T10:00:22.920Z,7316.00
2019-04-11T10:01:21.951Z,7164.00
2019-04-11T10:02:23.254Z,6964.00
2019-04-11T10:03:23.372Z,6708.00
2019-04-11T10:04:21.919Z,6396.00
2019-04-11T10:05:22.357Z,6156.00
2019-04-11T10:06:21.895Z,6000.00
2019-04-11T10:07:21.890Z,5996.00
2019-04-11T10:08:22.463Z,6088.00
2019-04-11T10:09:22.040Z,6168.00
2019-04-11T10:10:21.852Z,6528.00
2019-04-11T10:11:22.000Z,6800.00
2019-04-11T10:12:22.119Z,7072.00
2019-04-11T10:13:21.824Z,7244.00
2019-04-11T10:14:21.810Z,7336.00
2019-04-11T10:15:23.154Z,7276.00
2019-04-11T10:16:22.112Z,7212.00
2019-04-11T10:17:24.494Z,6988.00
2019-04-11T10:18:26.145Z,6676.00
2019-04-11T10:19:46.569Z,6208.00
2019-04-11T10:20:46.710Z,5920.00
2019-04-11T10:21:47.782Z,5672.00
2019-04-11T10:22:46.539Z,5464.00
2019-04-11T10:23:47.141Z,5292.00
2019-04-11T10:24:46.521Z,5148.00
2019-04-11T10:25:47.605Z,5036.00
2019-04-11T10:26:47.821Z,4912.00
2019-04-11T10:27:47.018Z,4784.00
2019-04-11T10:28:46.481Z,4652.00
2019-04-11T10:29:46.469Z,4536.00
2019-04-11T10:30:46.511Z,4416.00
2019-04-11T10:31:46.530Z,4336.00
2019-04-11T10:32:47.555Z,4280.00
2019-04-11T10:33:46.893Z,4208.00
2019-04-11T10:34:46.419Z,4124.00
2019-04-11T10:35:46.451Z,4048.00
2019-04-11T10:36:47.379Z,3992.00
2019-04-11T10:37:47.624Z,3972.00
2019-04-11T10:38:46.818Z,3956.00
2019-04-11T10:39:46.358Z,3940.00
2019-04-11T10:40:46.353Z,3928.00
2019-04-11T10:41:47.893Z,3924.00
2019-04-11T10:42:46.553Z,3920.00
2019-04-11T10:43:47.464Z,3884.00
2019-04-11T10:44:46.309Z,3984.00
2019-04-11T10:45:46.901Z,4040.00
2019-04-11T10:46:47.366Z,4124.00
2019-04-11T10:47:47.294Z,4232.00
2019-04-11T10:48:47.474Z,4364.00
2019-04-11T10:49:46.295Z,4392.00
2019-04-11T10:50:46.651Z,4464.00
2019-04-11T10:51:46.240Z,4520.00
2019-04-11T10:52:46.742Z,4644.00
2019-04-11T10:53:47.041Z,4704.00
2019-04-11T10:54:47.119Z,4788.00
2019-04-11T10:55:46.215Z,4972.00
2019-04-11T10:56:47.460Z,5004.00
2019-04-11T10:57:46.702Z,4964.00
2019-04-11T10:58:46.213Z,4888.00
2019-04-11T10:59:47.079Z,4768.00
2019-04-11T11:00:47.295Z,4748.00
2019-04-11T11:01:46.440Z,4688.00
2019-04-11T11:02:47.384Z,4772.00
2019-04-11T11:03:47.252Z,4880.00
2019-04-11T11:04:46.253Z,4968.00
2019-04-11T11:05:47.172Z,5100.00
2019-04-11T11:06:46.574Z,5168.00
2019-04-11T11:07:46.069Z,5216.00
2019-04-11T11:08:46.059Z,5312.00
2019-04-11T11:09:46.357Z,5312.00
2019-04-11T11:10:46.091Z,5420.00
2019-04-11T11:11:46.251Z,5396.00
2019-04-11T11:12:46.011Z,5360.00
2019-04-11T11:13:46.004Z,5364.00
2019-04-11T11:14:46.977Z,5336.00
2019-04-11T11:15:45.984Z,5356.00
2019-04-11T11:16:47.038Z,5312.00
2019-04-11T11:18:12.625Z,5192.00
2019-04-11T11:19:43.884Z,5004.00
2019-04-11T11:20:22.272Z,4936.00
2019-04-11T11:21:37.044Z,4868.00
2019-04-11T11:22:36.285Z,4796.00
2019-04-11T11:23:35.539Z,4740.00
2019-04-11T11:24:38.244Z,4668.00
2019-04-11T11:25:35.524Z,4576.00
2019-04-11T11:26:35.674Z,4484.00
2019-04-11T11:27:35.500Z,4396.00
2019-04-11T11:28:36.676Z,4296.00
2019-04-11T11:29:35.473Z,4264.00
2019-04-11T11:30:35.468Z,4208.00
2019-04-11T11:31:36.268Z,4172.00
2019-04-11T11:32:35.777Z,4140.00
2019-04-11T11:33:35.447Z,4072.00
2019-04-11T11:34:36.647Z,4036.00
2019-04-11T11:35:40.085Z,3944.00
2019-04-11T11:36:37.593Z,3864.00
2019-04-11T11:37:35.466Z,3584.00
2019-04-11T11:38:35.828Z,3460.00
2019-04-11T11:39:35.370Z,3488.00
2019-04-11T11:40:38.474Z,3468.00
2019-04-11T11:41:36.433Z,3492.00
2019-04-11T11:42:36.478Z,3544.00
2019-04-11T11:43:35.330Z,3652.00
2019-04-11T11:44:35.315Z,3748.00
2019-04-11T11:45:35.465Z,3832.00
2019-04-11T11:46:36.352Z,3924.00
2019-04-11T11:47:38.677Z,4052.00
2019-04-11T11:48:35.634Z,4128.00
2019-04-11T11:49:45.878Z,4160.00
2019-04-11T11:51:01.217Z,4140.00
2019-04-11T11:52:01.568Z,4088.00
2019-04-11T11:53:05.841Z,4024.00
2019-04-11T11:54:24.843Z,3936.00
2019-04-11T11:55:25.109Z,3888.00
2019-04-11T11:56:24.834Z,3884.00
2019-04-11T11:57:25.115Z,3888.00
2019-04-11T11:58:25.762Z,3876.00
2019-04-11T11:59:25.100Z,3856.00
2019-04-11T12:00:25.061Z,3812.00
2019-04-11T12:01:24.771Z,3756.00
2019-04-11T12:02:24.759Z,3684.00
2019-04-11T12:03:27.688Z,3612.00
2019-04-11T12:04:26.096Z,3532.00
2019-04-11T12:05:26.778Z,3460.00
2019-04-11T12:06:25.230Z,3416.00
2019-04-11T12:07:25.155Z,3392.00
2019-04-11T12:08:24.694Z,3396.00
2019-04-11T12:09:24.740Z,3412.00
2019-04-11T12:10:26.015Z,3448.00
2019-04-11T12:11:24.670Z,3480.00
2019-04-11T12:12:24.657Z,3512.00
2019-04-11T12:13:24.648Z,3508.00
2019-04-11T12:14:24.637Z,3388.00
2019-04-11T12:15:26.842Z,3248.00
2019-04-11T12:16:25.825Z,3188.00
2019-04-11T12:17:24.911Z,3096.00
2019-04-11T12:18:24.641Z,3008.00
2019-04-11T12:19:24.821Z,3004.00
2019-04-11T12:20:24.955Z,3000.00
2019-04-11T12:21:27.831Z,2984.00
2019-04-11T12:22:24.546Z,2976.00
2019-04-11T12:23:24.535Z,2956.00
2019-04-11T12:24:25.238Z,2940.00
2019-04-11T12:25:25.117Z,2944.00
2019-04-11T12:26:28.821Z,2840.00
2019-04-11T12:27:24.605Z,2780.00
2019-04-11T12:28:25.580Z,2756.00
2019-04-11T12:29:24.479Z,2740.00
2019-04-11T12:30:29.083Z,2708.00
2019-04-11T12:31:50.235Z,2724.00
2019-04-11T12:32:49.407Z,2816.00
2019-04-11T12:33:49.962Z,2792.00
2019-04-11T12:34:49.437Z,2796.00
2019-04-11T12:35:49.223Z,2832.00
2019-04-11T12:36:50.817Z,2824.00
2019-04-11T12:37:51.787Z,2832.00
2019-04-11T12:38:49.243Z,2796.00
2019-04-11T12:39:49.185Z,2768.00
2019-04-11T12:40:49.166Z,2720.00
2019-04-11T12:41:49.163Z,2704.00
2019-04-11T12:42:49.149Z,2708.00
2019-04-11T12:43:49.135Z,2620.00
2019-04-11T12:44:49.177Z,2516.00
2019-04-11T12:45:49.121Z,2456.00
2019-04-11T12:46:49.103Z,2368.00
2019-04-11T12:47:49.094Z,2324.00
2019-04-11T12:48:49.079Z,2304.00
2019-04-11T12:49:53.056Z,2236.00
2019-04-11T12:50:49.212Z,2184.00
2019-04-11T12:51:49.050Z,2212.00
2019-04-11T12:52:49.040Z,2196.00
2019-04-11T12:53:49.028Z,2168.00
2019-04-11T12:54:49.025Z,2100.00
2019-04-11T12:55:49.006Z,2000.00
2019-04-11T12:56:49.043Z,1896.00
2019-04-11T12:57:48.992Z,1880.00
2019-04-11T12:58:48.972Z,1856.00
2019-04-11T12:59:48.965Z,1860.00
2019-04-11T13:00:48.958Z,1812.00
2019-04-11T13:01:48.938Z,1724.00
2019-04-11T13:02:48.983Z,1740.00
2019-04-11T13:03:48.921Z,1724.00
2019-04-11T13:04:48.909Z,1724.00
2019-04-11T13:05:48.895Z,1744.00
2019-04-11T13:06:48.892Z,1780.00
2019-04-11T13:07:48.883Z,1808.00
2019-04-11T13:08:49.022Z,1880.00
2019-04-11T13:09:48.855Z,1960.00
2019-04-11T13:10:48.845Z,1960.00
2019-04-11T13:11:48.836Z,1880.00